Time;durP1;ratioP1;P1;durP2;ratioP2;P2;SDS_P1;SDS_P2;PMS_P1;PMS_P2;Temp;Humidity;BMP_temperature;BMP_pressure;BME280_temperature;BME280_humidity;BME280_pressure;Samples;Min_cycle;Max_cycle;Signal;HPM_P1;HPM_P2
2021/11/12 00:04:55;;;;;;;48.77;25.43;;;;;;;-0.42;88.13;101492.72;4993982;28;20041;-78
2021/11/12 00:13:06;;;;;;;43.40;24.30;;;;;;;-0.39;87.93;101496.38;4991188;28;20089;-78
2021/11/12 00:15:35;;;;;;;44.87;24.67;;;;;;;-0.31;88.29;101487.31;4993538;28;20046;-78
2021/11/12 00:18:01;;;;;;;47.70;23.53;;;;;;;-0.20;88.32;101490.47;4972279;28;20042;-78
2021/11/12 00:20:27;;;;;;;91.00;27.67;;;;;;;-0.11;88.14;101484.84;4975880;28;20092;-77
2021/11/12 00:22:53;;;;;;;109.83;30.40;;;;;;;-0.09;88.33;101484.13;4975296;28;20041;-77
2021/11/12 00:25:18;;;;;;;68.40;23.93;;;;;;;-0.05;88.25;101480.88;4993464;28;20041;-78
2021/11/12 00:27:44;;;;;;;73.30;29.20;;;;;;;-0.04;88.13;101477.47;4994047;28;20038;-77
2021/11/12 00:30:38;;;;;;;83.17;27.20;;;;;;;0.05;89.14;101479.63;4993661;28;20061;-78
2021/11/12 00:35:37;;;;;;;106.93;26.60;;;;;;;0.23;89.84;101471.91;4981323;23;20082;-79
2021/11/12 00:38:11;;;;;;;75.00;27.00;;;;;;;0.34;89.38;101470.75;4963253;28;20434;-79
2021/11/12 00:43:14;;;;;;;85.30;22.13;;;;;;;0.51;89.51;101474.19;4961422;28;20058;-78
2021/11/12 00:45:49;;;;;;;134.52;25.58;;;;;;;0.54;89.51;101478.63;4979964;28;20448;-78
2021/11/12 00:48:27;;;;;;;128.83;27.23;;;;;;;0.56;89.65;101482.22;4962398;28;20050;-78
2021/11/12 00:51:08;;;;;;;158.53;26.27;;;;;;;0.48;89.56;101479.22;4963957;28;20070;-79
2021/11/12 00:53:43;;;;;;;141.40;26.43;;;;;;;0.48;89.60;101476.63;4966722;28;20046;-79
2021/11/12 00:56:08;;;;;;;136.97;26.93;;;;;;;0.47;89.64;101484.34;4967409;28;20401;-79
2021/11/12 00:58:34;;;;;;;91.57;25.03;;;;;;;0.48;89.92;101484.44;4969729;28;20043;-79
2021/11/12 01:01:02;;;;;;;98.97;24.40;;;;;;;0.50;89.86;101477.59;4965250;28;20125;-79
2021/11/12 01:03:27;;;;;;;62.27;21.20;;;;;;;0.54;89.55;101478.63;4969337;28;20043;-79
2021/11/12 01:05:52;;;;;;;64.43;21.27;;;;;;;0.56;89.04;101471.81;4967375;28;20117;-78
2021/11/12 01:08:18;;;;;;;115.97;26.07;;;;;;;0.41;88.37;101475.41;4963265;28;20041;-79
2021/11/12 01:10:44;;;;;;;166.60;28.43;;;;;;;0.24;88.90;101468.50;4966055;28;20031;-79
2021/11/12 01:13:09;;;;;;;92.68;26.13;;;;;;;0.20;89.68;101466.56;4962334;28;20398;-78
2021/11/12 01:15:35;;;;;;;116.82;25.10;;;;;;;0.23;89.60;101474.50;4967200;28;20067;-79
2021/11/12 01:18:00;;;;;;;115.37;27.17;;;;;;;0.25;89.15;101467.69;4971095;28;20044;-79
2021/11/12 01:20:26;;;;;;;162.17;28.77;;;;;;;0.20;88.83;101467.44;4966274;28;20031;-79
2021/11/12 01:22:51;;;;;;;93.37;27.53;;;;;;;0.24;89.70;101470.19;4964818;28;20644;-78
2021/11/12 01:25:19;;;;;;;79.40;25.80;;;;;;;0.32;90.16;101467.19;4967566;28;20410;-78
2021/11/12 01:27:45;;;;;;;40.17;20.53;;;;;;;0.34;89.56;101459.44;4964422;28;20039;-79
2021/11/12 01:30:13;;;;;;;89.27;27.17;;;;;;;0.34;89.58;101465.56;4962311;28;20086;-79
2021/11/12 01:32:38;;;;;;;126.67;26.53;;;;;;;0.31;89.46;101467.09;4964949;28;20121;-79
2021/11/12 01:35:05;;;;;;;63.57;23.23;;;;;;;0.24;90.60;101468.50;4966181;28;20463;-78
2021/11/12 01:37:32;;;;;;;73.33;22.80;;;;;;;0.33;90.91;101470.66;4965352;28;20054;-79
2021/11/12 01:40:00;;;;;;;81.40;25.47;;;;;;;0.37;90.41;101468.31;4965397;28;20482;-78
2021/11/12 01:42:28;;;;;;;109.93;24.67;;;;;;;0.44;90.29;101466.88;4980871;28;20047;-79
2021/11/12 01:45:08;;;;;;;77.53;25.03;;;;;;;0.47;89.94;101466.16;4961668;28;20126;-79
2021/11/12 01:47:44;;;;;;;94.13;22.53;;;;;;;0.54;89.07;101470.84;4963751;28;20045;-79
2021/11/12 01:50:17;;;;;;;104.97;26.10;;;;;;;0.58;89.18;101462.41;4965439;28;20046;-79
2021/11/12 01:52:45;;;;;;;89.37;24.43;;;;;;;0.54;89.16;101463.06;4961695;28;20046;-79
2021/11/12 01:55:18;;;;;;;77.20;26.17;;;;;;;0.53;89.82;101449.19;4966069;28;20046;-79
2021/11/12 02:00:28;;;;;;;192.97;28.00;;;;;;;0.53;91.13;101456.09;4965015;28;20182;-79
2021/11/12 02:02:56;;;;;;;188.63;30.80;;;;;;;0.52;91.22;101455.16;4965428;28;20046;-79
2021/11/12 02:05:21;;;;;;;46.17;21.37;;;;;;;0.59;91.82;101457.25;4964614;28;20186;-79
2021/11/12 02:07:47;;;;;;;118.47;23.57;;;;;;;0.72;91.67;101444.88;4965290;28;20079;-79
2021/11/12 02:10:16;;;;;;;138.70;27.03;;;;;;;0.68;91.13;101446.41;4965847;28;20050;-79
2021/11/12 02:15:18;;;;;;;161.55;25.08;;;;;;;0.91;92.35;101442.31;4967709;28;20071;-79
2021/11/12 02:17:54;;;;;;;214.10;27.45;;;;;;;0.98;91.04;101451.31;4969786;28;20078;-79
2021/11/12 02:23:17;;;;;;;194.68;28.27;;;;;;;1.13;90.86;101445.94;4964317;28;20051;-79
2021/11/12 02:25:44;;;;;;;102.25;21.02;;;;;;;1.16;90.42;101444.38;4965384;28;20046;-79
2021/11/12 02:28:15;;;;;;;49.85;16.98;;;;;;;1.12;90.17;101437.25;4969181;28;20039;-79
2021/11/12 02:30:43;;;;;;;65.55;19.42;;;;;;;1.06;89.78;101439.56;4966812;28;20063;-78
2021/11/12 02:33:11;;;;;;;172.48;29.40;;;;;;;0.99;90.04;101447.88;4975653;28;20050;-78
2021/11/12 02:35:39;;;;;;;102.53;25.38;;;;;;;1.03;90.92;101449.84;4966740;28;20106;-78
2021/11/12 02:38:06;;;;;;;77.95;19.90;;;;;;;1.02;90.95;101448.03;4969846;28;20043;-79
2021/11/12 02:40:33;;;;;;;178.27;27.55;;;;;;;1.12;91.07;101449.38;4965232;28;20658;-79
2021/11/12 02:42:59;;;;;;;104.53;21.50;;;;;;;1.25;90.26;101441.31;4991034;28;20508;-78
2021/11/12 02:45:25;;;;;;;143.07;23.23;;;;;;;1.30;90.11;101451.09;4976224;28;20493;-78
2021/11/12 02:47:51;;;;;;;84.10;20.70;;;;;;;1.33;89.23;101454.66;4966634;28;20047;-79
2021/11/12 02:50:19;;;;;;;75.32;19.65;;;;;;;1.38;89.07;101458.38;4967988;28;20043;-78
2021/11/12 02:52:48;;;;;;;57.00;20.25;;;;;;;1.38;89.08;101453.16;4969675;28;20027;-79
2021/11/12 02:55:15;;;;;;;78.80;21.00;;;;;;;1.37;88.21;101454.00;4972562;28;20536;-79
2021/11/12 02:57:41;;;;;;;106.57;23.67;;;;;;;1.35;88.07;101453.03;4968230;28;20039;-78
2021/11/12 03:00:09;;;;;;;82.72;22.77;;;;;;;1.38;88.17;101448.84;4968140;28;20129;-78
2021/11/12 03:02:34;;;;;;;159.65;27.98;;;;;;;1.39;87.98;101455.84;4971682;28;20505;-79
2021/11/12 03:05:00;;;;;;;133.32;24.88;;;;;;;1.39;88.19;101455.84;4966210;28;20046;-79
2021/11/12 03:07:25;;;;;;;78.32;20.65;;;;;;;1.45;88.49;101444.84;4965535;28;20046;-79
2021/11/12 03:09:51;;;;;;;162.93;24.05;;;;;;;1.46;87.89;101444.00;4967464;28;20038;-79
2021/11/12 03:12:16;;;;;;;129.23;23.38;;;;;;;1.40;88.45;101447.22;4967941;28;20043;-79
2021/11/12 03:14:41;;;;;;;160.55;25.33;;;;;;;1.36;89.15;101444.41;4966789;28;20070;-80
2021/11/12 03:17:07;;;;;;;133.95;24.63;;;;;;;1.32;89.70;101440.78;4964242;28;20050;-79
2021/11/12 03:19:33;;;;;;;106.38;21.10;;;;;;;1.43;89.81;101446.47;4968261;28;20485;-79
2021/11/12 03:22:03;;;;;;;81.85;21.48;;;;;;;1.52;89.38;101447.78;4965051;28;20094;-79
2021/11/12 03:24:34;;;;;;;67.75;20.20;;;;;;;1.54;88.90;101445.22;4967445;28;20714;-79
2021/11/12 03:30:08;;;;;;;57.60;19.55;;;;;;;1.55;88.30;101449.63;4965203;28;20054;-79
2021/11/12 04:05:12;;;;;;;77.85;17.02;;;;;;;1.57;91.24;101447.97;4970411;28;20097;-78
2021/11/12 04:17:08;;;;;;;87.18;18.38;;;;;;;1.51;91.59;101451.19;4966129;28;20501;-79
2021/11/12 04:18:52;;;;;;;33.22;13.50;;;;;;;1.46;92.00;101433.59;4964875;28;20142;-78
2021/11/12 04:40:37;;;;;;;48.35;13.73;;;;;;;1.43;89.46;101423.06;4967735;28;20108;-78
2021/11/12 05:10:38;;;;;;;74.45;15.45;;;;;;;1.55;88.17;101421.00;4964717;28;20045;-78
2021/11/12 05:56:01;;;;;;;46.28;15.13;;;;;;;2.18;89.84;101406.38;4968342;28;20425;-79
2021/11/12 05:58:27;;;;;;;30.85;14.88;;;;;;;2.25;89.36;101401.41;4964252;28;20038;-79
2021/11/12 06:00:52;;;;;;;68.85;18.08;;;;;;;2.32;89.52;101393.03;4970430;28;20469;-79
2021/11/12 06:03:18;;;;;;;83.20;24.77;;;;;;;2.32;88.99;101390.44;4986783;28;20027;-79
2021/11/12 06:05:43;;;;;;;51.88;17.55;;;;;;;2.36;89.55;101389.75;4972474;28;20058;-79
2021/11/12 06:08:08;;;;;;;49.30;15.35;;;;;;;2.39;89.34;101384.66;4986419;28;20114;-79
2021/11/12 06:10:34;;;;;;;44.33;15.55;;;;;;;2.39;89.67;101384.66;4971918;28;20035;-79
2021/11/12 06:12:59;;;;;;;62.25;16.33;;;;;;;2.42;88.80;101380.44;4971801;28;20068;-78
2021/11/12 06:15:24;;;;;;;64.53;18.48;;;;;;;2.49;88.54;101386.81;4965076;28;20031;-78
2021/11/12 06:17:50;;;;;;;63.28;15.73;;;;;;;2.51;88.79;101379.91;4971418;28;20031;-79
2021/11/12 06:20:16;;;;;;;26.15;14.48;;;;;;;2.52;88.98;101386.94;4969504;28;20410;-78
2021/11/12 06:22:41;;;;;;;48.28;15.63;;;;;;;2.58;88.97;101391.50;4966985;28;20042;-79
2021/11/12 06:25:07;;;;;;;47.70;13.68;;;;;;;2.59;89.03;101386.34;4963989;28;20039;-79
2021/11/12 06:27:34;;;;;;;49.38;15.50;;;;;;;2.58;89.58;101383.69;4967392;28;20512;-78
2021/11/12 06:29:59;;;;;;;74.35;18.67;;;;;;;2.70;89.62;101389.38;4967246;28;20129;-79
2021/11/12 06:32:24;;;;;;;75.18;18.75;;;;;;;2.71;89.67;101387.66;4966726;28;20464;-79
2021/11/12 06:34:51;;;;;;;58.33;16.55;;;;;;;2.68;89.87;101382.34;4967732;28;20031;-78
2021/11/12 06:37:16;;;;;;;62.45;16.40;;;;;;;2.67;90.62;101380.53;4990073;23;20040;-78
2021/11/12 06:39:42;;;;;;;81.53;18.08;;;;;;;2.79;90.44;101381.91;5005867;28;20535;-78
2021/11/12 06:42:19;;;;;;;60.80;17.25;;;;;;;2.86;89.52;101383.03;4998888;28;20048;-78
2021/11/12 06:50:12;;;;;;;77.30;18.58;;;;;;;2.66;89.82;101389.19;4994510;28;20077;-78
2021/11/12 06:52:39;;;;;;;33.50;16.13;;;;;;;2.80;90.64;101393.22;4996448;28;20497;-78
2021/11/12 06:55:05;;;;;;;66.40;17.38;;;;;;;2.79;90.30;101381.91;4996604;28;20481;-78
2021/11/12 06:57:31;;;;;;;83.45;18.67;;;;;;;2.85;90.06;101389.06;4996864;28;20088;-78
2021/11/12 06:59:57;;;;;;;74.55;17.63;;;;;;;2.79;90.37;101386.25;4997371;28;20102;-78
2021/11/12 07:02:24;;;;;;;117.05;21.20;;;;;;;2.93;89.52;101382.44;4979891;28;20310;-78
2021/11/12 07:04:50;;;;;;;46.42;14.98;;;;;;;2.98;89.25;101383.50;4979872;28;20101;-78
2021/11/12 07:07:16;;;;;;;80.38;16.55;;;;;;;3.09;88.58;101376.06;4984858;28;20045;-78
2021/11/12 07:09:42;;;;;;;62.05;14.98;;;;;;;3.06;88.49;101371.63;4992510;28;20038;-78
2021/11/12 07:12:08;;;;;;;35.20;14.65;;;;;;;2.99;88.48;101374.88;4970597;28;20038;-77
2021/11/12 07:14:33;;;;;;;143.13;22.88;;;;;;;3.05;88.63;101375.09;4992101;28;20057;-79
2021/11/12 07:16:59;;;;;;;92.45;16.98;;;;;;;3.11;88.43;101377.03;4993848;28;20130;-79
2021/11/12 07:19:24;;;;;;;71.95;17.60;;;;;;;3.08;88.15;101383.03;4994524;28;20069;-79
2021/11/12 07:21:51;;;;;;;60.05;16.42;;;;;;;3.22;88.73;101377.44;4993927;28;20049;-79
2021/11/12 07:24:17;;;;;;;77.40;17.02;;;;;;;3.40;89.06;101370.28;4992101;28;20142;-79
2021/11/12 07:26:43;;;;;;;31.77;14.40;;;;;;;3.55;88.60;101369.06;4994229;28;20512;-79
2021/11/12 07:29:08;;;;;;;39.05;16.05;;;;;;;3.65;88.32;101373.78;4994225;28;20034;-79
2021/11/12 07:31:38;;;;;;;38.38;14.30;;;;;;;3.61;87.09;101374.50;4994267;28;20500;-79
2021/11/12 07:34:03;;;;;;;56.03;17.40;;;;;;;3.41;87.07;101374.69;4994365;28;20068;-79
2021/11/12 07:36:36;;;;;;;41.00;15.63;;;;;;;3.43;88.12;101373.03;4994085;28;20101;-78
2021/11/12 07:39:06;;;;;;;47.33;16.42;;;;;;;3.61;88.60;101374.50;4976834;28;20398;-79
2021/11/12 07:47:10;;;;;;;28.30;17.80;;;;;;;3.90;88.67;101367.69;4973725;28;20045;-78
2021/11/12 07:49:37;;;;;;;32.92;17.13;;;;;;;4.02;87.87;101370.72;4992414;28;20042;-79
2021/11/12 07:52:04;;;;;;;35.28;16.95;;;;;;;4.14;88.05;101376.38;4994471;28;20511;-79
2021/11/12 07:54:29;;;;;;;56.85;18.98;;;;;;;4.17;87.27;101370.34;4994030;28;20049;-78
2021/11/12 07:56:55;;;;;;;47.17;20.08;;;;;;;4.22;87.13;101371.41;4994707;28;20408;-79
2021/11/12 07:59:20;;;;;;;74.65;27.00;;;;;;;4.28;87.47;101374.19;4977053;28;20501;-79
2021/11/12 08:01:45;;;;;;;61.10;27.63;;;;;;;4.34;87.87;101363.94;4988642;28;20044;-79
2021/11/12 08:04:11;;;;;;;57.53;24.70;;;;;;;4.43;87.61;101357.22;4985908;28;20073;-79
2021/11/12 08:06:38;;;;;;;54.65;24.00;;;;;;;4.53;87.92;101354.97;4967625;28;20041;-79
2021/11/12 08:09:25;;;;;;;68.80;21.75;;;;;;;4.59;87.02;101355.16;4987367;28;20125;-80
2021/11/12 08:11:57;;;;;;;69.63;22.13;;;;;;;4.47;87.19;101356.50;4987803;28;20708;-79
2021/11/12 08:14:35;;;;;;;66.95;29.38;;;;;;;4.37;88.03;101348.34;4975996;28;20038;-79
2021/11/12 08:19:53;;;;;;;71.10;24.75;;;;;;;4.69;87.72;101347.59;4993050;28;20808;-79
2021/11/12 08:22:30;;;;;;;38.22;22.15;;;;;;;4.84;87.59;101340.22;4994705;28;20038;-79
2021/11/12 08:41:21;;;;;;;37.20;21.75;;;;;;;5.46;86.54;101316.69;4991217;28;20041;-79
2021/11/12 08:43:53;;;;;;;45.78;21.63;;;;;;;5.54;85.86;101309.94;4994286;28;20045;-79
2021/11/12 08:46:28;;;;;;;43.08;24.02;;;;;;;5.63;85.67;101298.81;4977008;28;20038;-80
2021/11/12 08:49:01;;;;;;;47.13;23.55;;;;;;;5.67;85.38;101293.69;4977352;28;20042;-80
2021/11/12 08:51:33;;;;;;;44.22;24.83;;;;;;;5.68;85.74;101292.84;4977196;28;20038;-79
2021/11/12 08:54:00;;;;;;;46.60;24.60;;;;;;;5.75;85.33;101298.25;4994609;28;20061;-80
2021/11/12 08:56:25;;;;;;;50.97;23.77;;;;;;;5.68;85.20;101308.56;4994367;28;20034;-80
2021/11/12 08:58:51;;;;;;;41.03;25.17;;;;;;;5.76;85.69;101305.25;4994216;28;20993;-80
2021/11/12 09:01:17;;;;;;;68.75;33.28;;;;;;;5.86;85.23;101302.03;4994800;28;20168;-79
2021/11/12 09:03:42;;;;;;;51.78;29.60;;;;;;;5.87;84.93;101295.97;4994502;28;20505;-80
2021/11/12 09:06:08;;;;;;;56.92;31.90;;;;;;;5.95;85.72;101286.59;4994471;28;20030;-79
2021/11/12 09:08:36;;;;;;;66.93;29.65;;;;;;;6.04;85.06;101291.16;4978383;28;20086;-78
2021/11/12 09:11:04;;;;;;;61.28;26.65;;;;;;;6.09;84.79;101290.41;4995186;28;20382;-79
2021/11/12 09:13:35;;;;;;;53.83;30.48;;;;;;;6.16;84.66;101286.22;4994776;28;20034;-79
2021/11/12 09:16:06;;;;;;;62.15;27.40;;;;;;;6.21;83.99;101289.84;4992327;28;20113;-80
2021/11/12 09:18:31;;;;;;;65.03;25.70;;;;;;;5.95;82.85;101285.66;4972663;28;20413;-79
2021/11/12 09:20:57;;;;;;;41.33;24.58;;;;;;;5.87;84.23;101282.84;4994529;28;20034;-79
2021/11/12 09:23:22;;;;;;;39.38;24.15;;;;;;;5.88;84.25;101282.00;4995576;28;20429;-79
2021/11/12 09:25:47;;;;;;;53.45;24.40;;;;;;;5.96;83.34;101288.34;4998905;28;20128;-79
2021/11/12 09:28:14;;;;;;;43.83;23.90;;;;;;;6.00;83.54;101290.22;4998987;28;20045;-81
2021/11/12 09:30:39;;;;;;;55.78;24.52;;;;;;;5.91;83.54;101289.94;4999506;28;20057;-79
2021/11/12 09:33:06;;;;;;;46.72;25.35;;;;;;;5.91;83.80;101297.78;4982310;28;20409;-79
2021/11/12 09:35:33;;;;;;;55.60;29.35;;;;;;;5.92;83.90;101282.13;4999850;28;20026;-79
2021/11/12 09:37:58;;;;;;;53.65;27.55;;;;;;;6.03;83.81;101287.66;4982214;28;20050;-79
2021/11/12 09:40:24;;;;;;;51.47;26.83;;;;;;;6.13;83.73;101281.78;4999964;28;20034;-80
2021/11/12 09:42:51;;;;;;;45.45;25.13;;;;;;;6.15;83.34;101272.19;4983630;28;20042;-80
2021/11/12 09:45:18;;;;;;;41.47;23.90;;;;;;;6.19;84.02;101270.56;4999600;28;20034;-79
2021/11/12 09:47:43;;;;;;;39.80;23.63;;;;;;;6.30;83.84;101262.94;5000210;28;20034;-80
2021/11/12 09:50:18;;;;;;;54.88;26.25;;;;;;;6.41;82.89;101261.44;4998935;28;20038;-79
2021/11/12 09:52:45;;;;;;;49.55;26.10;;;;;;;6.49;83.20;101252.00;4998750;28;20042;-79
2021/11/12 09:55:12;;;;;;;50.90;27.73;;;;;;;6.54;82.67;101246.88;4999636;28;20034;-79
2021/11/12 09:57:38;;;;;;;49.60;27.27;;;;;;;6.60;82.39;101239.13;4999512;28;20034;-79
2021/11/12 10:00:08;;;;;;;45.50;25.05;;;;;;;6.69;82.33;101231.47;4989709;28;20091;-80
2021/11/12 10:02:43;;;;;;;44.55;24.52;;;;;;;6.74;81.55;101235.06;4971143;28;20034;-79
2021/11/12 10:05:10;;;;;;;48.88;26.75;;;;;;;6.72;81.18;101235.88;5000421;28;20030;-79
2021/11/12 10:07:37;;;;;;;47.05;25.80;;;;;;;6.67;81.20;101227.91;4998755;28;20046;-80
2021/11/12 10:10:14;;;;;;;47.15;27.13;;;;;;;6.69;81.43;101225.34;4998781;28;20343;-79
2021/11/12 10:12:43;;;;;;;45.42;25.90;;;;;;;6.74;81.53;101219.31;4996001;28;20548;-79
2021/11/12 10:15:21;;;;;;;51.15;27.45;;;;;;;6.75;81.36;101217.56;4998424;28;20477;-79
2021/11/12 10:17:49;;;;;;;55.22;28.45;;;;;;;6.68;81.25;101207.81;4981384;28;20417;-79
2021/11/12 10:20:21;;;;;;;52.75;26.90;;;;;;;6.65;81.21;101198.13;4998469;28;20448;-79
2021/11/12 10:22:48;;;;;;;54.67;27.25;;;;;;;6.80;80.87;101192.31;4990503;28;20054;-79
2021/11/12 10:25:15;;;;;;;44.50;26.48;;;;;;;6.96;81.07;101188.25;4998872;28;20034;-79
2021/11/12 10:27:46;;;;;;;47.78;27.85;;;;;;;6.95;79.95;101187.38;4990087;28;20045;-79
2021/11/12 10:30:16;;;;;;;45.80;25.77;;;;;;;7.02;80.52;101188.34;4999751;28;20521;-79
2021/11/12 10:32:43;;;;;;;48.35;26.92;;;;;;;7.15;79.69;101178.97;4995350;28;20037;-78
2021/11/12 10:35:20;;;;;;;40.88;24.65;;;;;;;7.27;79.39;101162.56;4998872;28;20027;-80
2021/11/12 10:37:45;;;;;;;42.72;25.08;;;;;;;7.24;79.05;101164.28;4994354;28;20141;-79
2021/11/12 10:40:21;;;;;;;47.72;27.45;;;;;;;7.21;78.53;101163.34;4998823;28;20144;-80
2021/11/12 10:42:49;;;;;;;51.65;28.73;;;;;;;7.16;78.88;101158.00;4998480;28;20042;-79
2021/11/12 10:45:26;;;;;;;46.70;26.67;;;;;;;7.23;79.01;101141.53;4998956;28;20074;-80
2021/11/12 10:47:57;;;;;;;43.97;26.88;;;;;;;7.29;79.16;101140.75;4998957;28;20040;-79
2021/11/12 10:50:25;;;;;;;42.95;25.08;;;;;;;7.32;78.30;101129.41;4981388;28;20041;-79
2021/11/12 10:52:55;;;;;;;40.10;25.23;;;;;;;7.37;78.95;101117.22;4998763;28;20046;-79
2021/11/12 10:55:23;;;;;;;40.10;24.00;;;;;;;7.50;78.70;101115.69;4998451;28;20035;-79
2021/11/12 10:57:51;;;;;;;41.35;24.35;;;;;;;7.46;77.48;101107.75;4998273;28;20043;-79
2021/11/12 11:00:21;;;;;;;40.33;24.13;;;;;;;7.46;78.52;101107.75;4998529;28;20038;-80
2021/11/12 11:02:56;;;;;;;40.42;24.85;;;;;;;7.53;78.31;101105.22;4980227;28;20034;-79
2021/11/12 11:05:45;;;;;;;38.60;25.38;;;;;;;7.64;78.07;101095.75;4995668;28;20065;-79
2021/11/12 11:08:13;;;;;;;38.60;25.65;;;;;;;7.78;77.74;101093.31;4980726;28;20448;-79
2021/11/12 11:10:43;;;;;;;37.00;24.98;;;;;;;7.71;76.33;101091.50;4981102;28;20039;-79
2021/11/12 11:13:15;;;;;;;38.08;24.30;;;;;;;7.74;76.21;101086.28;4998808;28;20088;-80
2021/11/12 11:15:53;;;;;;;37.00;24.30;;;;;;;7.73;76.58;101080.16;4994888;28;20472;-79
2021/11/12 11:18:33;;;;;;;38.88;25.05;;;;;;;7.85;76.33;101072.41;4975194;28;20485;-80
2021/11/12 11:24:00;;;;;;;39.38;25.65;;;;;;;7.83;76.12;101060.09;4997381;28;20547;-79
2021/11/12 11:26:43;;;;;;;39.00;23.77;;;;;;;7.64;75.76;101049.34;4999241;28;20038;-79
2021/11/12 11:29:13;;;;;;;36.13;23.45;;;;;;;7.72;76.48;101052.09;4977727;28;20057;-79
2021/11/12 11:31:39;;;;;;;39.40;23.70;;;;;;;7.71;76.32;101050.34;4999405;28;20092;-79
2021/11/12 11:34:06;;;;;;;38.50;23.55;;;;;;;7.67;76.69;101054.63;4999222;28;20034;-80
2021/11/12 11:36:33;;;;;;;36.58;23.63;;;;;;;7.74;76.58;101060.88;4982670;28;20098;-81
2021/11/12 11:39:03;;;;;;;39.25;24.60;;;;;;;7.73;76.47;101050.34;5000075;28;20060;-80
2021/11/12 11:41:29;;;;;;;37.45;23.25;;;;;;;7.78;76.61;101046.94;4999994;28;20049;-80
2021/11/12 11:43:55;;;;;;;36.20;22.52;;;;;;;7.83;76.43;101050.50;4999814;28;20038;-80
2021/11/12 11:46:29;;;;;;;35.15;22.55;;;;;;;7.84;75.79;101046.13;4999806;28;20090;-79
2021/11/12 11:48:57;;;;;;;37.58;24.00;;;;;;;7.86;76.46;101040.03;4998230;28;20053;-80
2021/11/12 11:51:26;;;;;;;41.92;24.50;;;;;;;7.92;76.06;101041.84;4982163;28;20038;-79
2021/11/12 11:53:52;;;;;;;36.95;23.48;;;;;;;7.99;75.73;101037.53;4981854;28;20043;-80
2021/11/12 11:56:29;;;;;;;40.03;24.13;;;;;;;7.98;75.57;101031.41;4999096;28;20034;-80
2021/11/12 11:58:58;;;;;;;38.92;25.10;;;;;;;8.00;75.53;101034.06;4982040;28;20505;-80
2021/11/12 12:01:29;;;;;;;37.67;25.27;;;;;;;8.04;75.82;101020.06;4998941;28;20042;-79
2021/11/12 12:04:10;;;;;;;38.08;24.30;;;;;;;8.16;74.75;101025.50;4998734;28;20481;-79
2021/11/12 12:07:02;;;;;;;40.25;25.08;;;;;;;8.18;74.77;101017.63;4976918;28;20049;-80
2021/11/12 12:09:48;;;;;;;35.75;23.85;;;;;;;8.21;74.57;101020.28;4973464;28;20049;-79
2021/11/12 12:12:34;;;;;;;33.97;23.17;;;;;;;8.28;74.48;101012.50;4998698;28;20087;-80
2021/11/12 12:15:05;;;;;;;35.78;21.65;;;;;;;8.40;74.50;101003.00;4996021;28;20041;-79
2021/11/12 12:17:33;;;;;;;35.47;22.73;;;;;;;8.36;75.11;101004.69;4998478;28;20413;-80
2021/11/12 12:20:09;;;;;;;34.97;21.60;;;;;;;8.40;73.97;101001.22;4981453;28;20050;-80
2021/11/12 12:30:53;;;;;;;36.35;23.33;;;;;;;8.53;74.38;100973.31;4995913;28;20508;-80
2021/11/12 12:37:04;;;;;;;30.83;21.40;;;;;;;8.89;73.98;100962.22;4995504;28;20041;-79
2021/11/12 13:21:56;;;;;;;24.42;18.33;;;;;;;10.72;69.45;100895.19;4992786;28;20046;-77
2021/11/12 13:24:31;;;;;;;28.55;17.67;;;;;;;10.89;68.63;100881.94;4992976;28;20508;-78
2021/11/12 13:27:02;;;;;;;30.30;19.30;;;;;;;10.89;68.67;100881.94;4990232;28;20030;-78
2021/11/12 13:29:27;;;;;;;31.42;21.25;;;;;;;10.99;68.41;100885.47;4992308;28;20045;-77
2021/11/12 13:32:19;;;;;;;39.58;25.55;;;;;;;11.10;67.64;100885.44;4992265;28;20039;-77
2021/11/12 13:34:47;;;;;;;34.38;22.75;;;;;;;11.16;68.21;100881.03;4987769;28;20054;-77
2021/11/12 13:37:18;;;;;;;31.50;20.40;;;;;;;11.20;67.53;100892.47;4988594;28;20035;-77
2021/11/12 13:39:44;;;;;;;25.60;17.00;;;;;;;11.19;67.17;100899.50;4968397;28;20066;-77
2021/11/12 13:42:10;;;;;;;26.58;17.55;;;;;;;11.22;67.15;100895.97;4992562;28;20045;-77
2021/11/12 13:44:38;;;;;;;25.92;16.75;;;;;;;11.15;67.13;100886.31;4992112;28;20049;-77
2021/11/12 13:47:08;;;;;;;24.63;15.07;;;;;;;11.09;67.10;100879.28;4974957;28;20416;-77
2021/11/12 13:49:37;;;;;;;24.63;15.75;;;;;;;11.23;66.84;100870.44;4971564;28;20536;-77
2021/11/12 13:52:12;;;;;;;23.48;14.57;;;;;;;11.16;65.33;100874.84;4988527;28;20045;-77
2021/11/12 13:54:39;;;;;;;18.50;12.57;;;;;;;11.17;64.20;100874.84;4989276;28;20049;-77
2021/11/12 13:57:16;;;;;;;19.08;12.20;;;;;;;11.17;63.24;100872.22;4991960;28;20154;-76
2021/11/12 13:59:51;;;;;;;21.38;12.18;;;;;;;11.34;62.15;100869.53;4975032;28;20034;-77
2021/11/12 14:02:17;;;;;;;15.80;11.25;;;;;;;11.47;63.11;100862.41;4992306;28;20030;-77
2021/11/12 14:04:42;;;;;;;20.20;12.43;;;;;;;11.55;62.46;100863.25;4992224;28;20599;-77
2021/11/12 14:07:20;;;;;;;16.33;11.32;;;;;;;11.64;60.94;100862.31;4992350;28;20046;-77
2021/11/12 14:09:47;;;;;;;17.88;11.13;;;;;;;11.49;62.31;100865.03;4992473;28;20038;-77
2021/11/12 14:12:13;;;;;;;19.00;12.27;;;;;;;11.56;62.32;100865.00;4994146;28;20060;-77
2021/11/12 14:14:42;;;;;;;17.92;12.07;;;;;;;11.49;62.09;100859.75;4995455;28;20556;-77
2021/11/12 14:17:25;;;;;;;20.65;12.90;;;;;;;11.53;61.55;100856.22;4995693;28;20053;-77
2021/11/12 14:20:03;;;;;;;19.73;12.63;;;;;;;11.42;62.25;100864.19;4977260;28;20038;-77
2021/11/12 14:22:32;;;;;;;21.50;13.23;;;;;;;11.37;62.35;100864.22;4996929;28;20049;-77
2021/11/12 14:25:27;;;;;;;20.77;12.70;;;;;;;11.39;61.16;100858.91;4997477;28;20054;-77
2021/11/12 14:28:13;;;;;;;20.15;12.98;;;;;;;11.43;60.92;100863.31;4995583;28;20031;-77
2021/11/12 14:31:30;;;;;;;19.63;13.23;;;;;;;11.38;61.62;100858.03;4969021;28;20393;-77
2021/11/12 14:33:44;;;;;;;19.15;13.00;;;;;;;11.27;61.59;100857.22;4991955;28;20058;-77
2021/11/12 14:39:58;;;;;;;22.45;14.35;;;;;;;10.99;61.67;100864.34;4992167;28;20093;-77
2021/11/12 14:45:04;;;;;;;20.40;13.27;;;;;;;10.10;63.29;100854.69;4974349;28;20130;-78
2021/11/12 14:47:41;;;;;;;18.83;11.52;;;;;;;9.56;64.78;100864.25;4976497;28;20034;-77
2021/11/12 14:53:02;;;;;;;22.42;13.43;;;;;;;8.73;66.97;100858.56;4974890;28;20038;-76
2021/11/12 14:55:28;;;;;;;24.27;14.07;;;;;;;8.45;68.12;100854.00;4994870;28;20034;-77
2021/11/12 14:57:54;;;;;;;24.10;14.98;;;;;;;8.18;69.00;100858.13;4994799;28;20416;-77
2021/11/12 15:00:20;;;;;;;23.75;14.32;;;;;;;7.96;69.43;100848.25;4995310;28;20413;-77
2021/11/12 15:02:45;;;;;;;22.60;13.45;;;;;;;7.75;69.88;100852.44;4994509;28;20054;-77
2021/11/12 15:05:12;;;;;;;25.52;14.60;;;;;;;7.57;71.01;100847.88;4977096;28;20050;-77
2021/11/12 15:07:41;;;;;;;27.60;16.50;;;;;;;7.36;71.36;100832.75;4994662;28;20137;-77
2021/11/12 15:10:13;;;;;;;25.00;14.45;;;;;;;7.23;71.80;100843.94;4994466;28;20049;-77
2021/11/12 15:12:39;;;;;;;24.90;14.18;;;;;;;7.07;72.18;100850.75;4994043;28;20042;-77
2021/11/12 15:15:06;;;;;;;26.73;15.25;;;;;;;6.88;73.10;100851.38;4994141;28;20566;-77
2021/11/12 15:17:31;;;;;;;25.48;15.10;;;;;;;6.75;73.41;100852.94;4994292;28;20045;-77
2021/11/12 15:19:57;;;;;;;26.85;16.25;;;;;;;6.62;73.82;100843.13;4976521;28;20125;-77
2021/11/12 15:22:41;;;;;;;24.85;14.02;;;;;;;6.52;74.47;100845.63;4976442;28;20046;-77
2021/11/12 15:25:17;;;;;;;25.52;15.52;;;;;;;6.39;74.72;100850.63;4976406;28;20061;-77
2021/11/12 15:30:17;;;;;;;34.47;18.33;;;;;;;6.05;76.08;100848.34;4977340;28;20039;-77
2021/11/12 15:32:47;;;;;;;30.55;16.98;;;;;;;5.94;76.38;100852.50;4994121;28;20034;-77
2021/11/12 15:35:16;;;;;;;28.70;16.60;;;;;;;5.86;76.72;100856.69;4997989;28;20043;-77
2021/11/12 15:37:55;;;;;;;29.15;16.10;;;;;;;5.78;76.60;100851.31;4977096;28;20129;-77
2021/11/12 15:43:07;;;;;;;32.13;17.45;;;;;;;5.61;77.63;100855.38;4993007;28;20105;-77